sensor_id;sensor_type;location;lat;lon;timestamp;pressure;altitude;pressure_sealevel;temperature;humidity
67740;BME280;54536;50.090;14.420;2022-11-15T00:00:57;99593.75;;;8.74;66.44
67740;BME280;54536;50.090;14.420;2022-11-15T00:03:30;99587.94;;;8.71;66.49
67740;BME280;54536;50.090;14.420;2022-11-15T00:06:01;99593.75;;;8.63;66.93
67740;BME280;54536;50.090;14.420;2022-11-15T00:08:32;99591.75;;;8.66;67.22
67740;BME280;54536;50.090;14.420;2022-11-15T00:11:04;99583.63;;;8.58;66.04
67740;BME280;54536;50.090;14.420;2022-11-15T00:13:35;99582.44;;;8.51;66.63
67740;BME280;54536;50.090;14.420;2022-11-15T00:16:03;99593.47;;;8.32;66.93
67740;BME280;54536;50.090;14.420;2022-11-15T00:18:30;99594.41;;;8.31;67.34
67740;BME280;54536;50.090;14.420;2022-11-15T00:21:06;99593.31;;;8.23;68.23
67740;BME280;54536;50.090;14.420;2022-11-15T00:23:33;99594.16;;;8.23;67.12
67740;BME280;54536;50.090;14.420;2022-11-15T00:26:07;99588.34;;;8.31;67.21
67740;BME280;54536;50.090;14.420;2022-11-15T00:28:33;99600.13;;;8.25;67.02
67740;BME280;54536;50.090;14.420;2022-11-15T00:31:05;99601.28;;;8.10;68.15
67740;BME280;54536;50.090;14.420;2022-11-15T00:33:32;99593.41;;;8.10;67.59
67740;BME280;54536;50.090;14.420;2022-11-15T00:36:09;99596.03;;;8.10;67.66
67740;BME280;54536;50.090;14.420;2022-11-15T00:38:39;99598.94;;;8.18;67.58
67740;BME280;54536;50.090;14.420;2022-11-15T00:41:07;99605.19;;;8.04;67.41
67740;BME280;54536;50.090;14.420;2022-11-15T00:43:39;99599.94;;;8.04;67.72
67740;BME280;54536;50.090;14.420;2022-11-15T00:46:11;99596.19;;;8.19;67.55
67740;BME280;54536;50.090;14.420;2022-11-15T00:48:38;99594.66;;;8.28;67.27
67740;BME280;54536;50.090;14.420;2022-11-15T00:51:05;99595.34;;;8.19;67.44
67740;BME280;54536;50.090;14.420;2022-11-15T00:53:32;99598.41;;;8.02;67.98
67740;BME280;54536;50.090;14.420;2022-11-15T00:55:58;99598.19;;;8.05;68.80
67740;BME280;54536;50.090;14.420;2022-11-15T00:58:25;99591.75;;;8.09;68.88
67740;BME280;54536;50.090;14.420;2022-11-15T01:00:51;99593.88;;;8.04;68.35
67740;BME280;54536;50.090;14.420;2022-11-15T01:03:18;99586.06;;;8.15;67.57
67740;BME280;54536;50.090;14.420;2022-11-15T01:05:44;99588.91;;;8.12;68.17
67740;BME280;54536;50.090;14.420;2022-11-15T01:08:26;99587.34;;;8.09;68.04
67740;BME280;54536;50.090;14.420;2022-11-15T01:10:52;99578.31;;;8.13;68.15
67740;BME280;54536;50.090;14.420;2022-11-15T01:13:24;99583.81;;;8.21;67.62
67740;BME280;54536;50.090;14.420;2022-11-15T01:15:50;99569.53;;;8.26;67.41
67740;BME280;54536;50.090;14.420;2022-11-15T01:18:17;99569.00;;;8.09;68.01
67740;BME280;54536;50.090;14.420;2022-11-15T01:20:43;99565.69;;;8.18;67.98
67740;BME280;54536;50.090;14.420;2022-11-15T01:23:15;99569.75;;;8.23;68.59
67740;BME280;54536;50.090;14.420;2022-11-15T01:25:41;99564.28;;;8.37;68.45
67740;BME280;54536;50.090;14.420;2022-11-15T01:28:07;99569.78;;;8.34;68.21
67740;BME280;54536;50.090;14.420;2022-11-15T01:30:45;99574.28;;;8.32;68.43
67740;BME280;54536;50.090;14.420;2022-11-15T01:33:11;99577.13;;;8.17;68.54
67740;BME280;54536;50.090;14.420;2022-11-15T01:35:40;99578.75;;;8.07;69.20
67740;BME280;54536;50.090;14.420;2022-11-15T01:38:07;99570.13;;;8.29;70.59
67740;BME280;54536;50.090;14.420;2022-11-15T01:40:35;99566.81;;;8.50;68.32
67740;BME280;54536;50.090;14.420;2022-11-15T01:43:22;99565.16;;;8.49;67.71
67740;BME280;54536;50.090;14.420;2022-11-15T01:46:06;99564.41;;;8.24;67.66
67740;BME280;54536;50.090;14.420;2022-11-15T01:48:37;99561.44;;;8.29;67.53
67740;BME280;54536;50.090;14.420;2022-11-15T01:51:13;99560.69;;;8.15;67.58
67740;BME280;54536;50.090;14.420;2022-11-15T01:53:47;99552.72;;;8.17;68.57
67740;BME280;54536;50.090;14.420;2022-11-15T01:56:25;99559.31;;;8.45;67.39
67740;BME280;54536;50.090;14.420;2022-11-15T01:58:56;99556.22;;;8.40;67.59
67740;BME280;54536;50.090;14.420;2022-11-15T02:01:25;99555.31;;;8.17;68.28
67740;BME280;54536;50.090;14.420;2022-11-15T02:04:01;99556.09;;;8.53;67.58
67740;BME280;54536;50.090;14.420;2022-11-15T02:06:35;99556.09;;;8.53;66.99
67740;BME280;54536;50.090;14.420;2022-11-15T02:09:03;99551.81;;;8.52;66.17
67740;BME280;54536;50.090;14.420;2022-11-15T02:11:30;99554.06;;;8.56;65.66
67740;BME280;54536;50.090;14.420;2022-11-15T02:13:59;99548.72;;;8.47;66.15
67740;BME280;54536;50.090;14.420;2022-11-15T02:25:18;99536.66;;;8.33;66.42
67740;BME280;54536;50.090;14.420;2022-11-15T02:33:20;99537.72;;;8.30;68.03
67740;BME280;54536;50.090;14.420;2022-11-15T02:36:00;99543.97;;;8.40;67.28
67740;BME280;54536;50.090;14.420;2022-11-15T02:39:18;99540.09;;;8.33;67.15
67740;BME280;54536;50.090;14.420;2022-11-15T02:41:54;99532.97;;;8.35;67.67
67740;BME280;54536;50.090;14.420;2022-11-15T02:44:33;99537.78;;;8.41;68.03
67740;BME280;54536;50.090;14.420;2022-11-15T02:47:07;99534.16;;;8.31;68.03
67740;BME280;54536;50.090;14.420;2022-11-15T02:49:58;99534.31;;;8.52;67.73
67740;BME280;54536;50.090;14.420;2022-11-15T02:52:26;99538.44;;;8.32;67.74
67740;BME280;54536;50.090;14.420;2022-11-15T02:55:04;99546.78;;;8.37;68.47
67740;BME280;54536;50.090;14.420;2022-11-15T03:00:34;99536.31;;;8.37;67.87
67740;BME280;54536;50.090;14.420;2022-11-15T03:03:12;99540.63;;;8.38;67.63
67740;BME280;54536;50.090;14.420;2022-11-15T03:05:51;99528.78;;;8.33;67.50
67740;BME280;54536;50.090;14.420;2022-11-15T03:09:22;99528.94;;;8.42;67.46
67740;BME280;54536;50.090;14.420;2022-11-15T03:11:36;99515.97;;;8.41;68.08
67740;BME280;54536;50.090;14.420;2022-11-15T03:14:20;99507.97;;;8.31;68.00
67740;BME280;54536;50.090;14.420;2022-11-15T03:17:28;99508.06;;;8.30;68.46
67740;BME280;54536;50.090;14.420;2022-11-15T03:19:59;99515.25;;;8.50;68.35
67740;BME280;54536;50.090;14.420;2022-11-15T03:22:32;99515.00;;;8.53;67.45
67740;BME280;54536;50.090;14.420;2022-11-15T03:25:04;99512.28;;;8.55;67.47
67740;BME280;54536;50.090;14.420;2022-11-15T03:27:38;99509.84;;;8.29;67.29
67740;BME280;54536;50.090;14.420;2022-11-15T03:30:08;99502.34;;;8.36;67.50
67740;BME280;54536;50.090;14.420;2022-11-15T03:33:00;99501.28;;;8.16;67.50
67740;BME280;54536;50.090;14.420;2022-11-15T03:35:35;99500.31;;;8.17;67.39
67740;BME280;54536;50.090;14.420;2022-11-15T03:38:17;99499.03;;;8.23;67.70
67740;BME280;54536;50.090;14.420;2022-11-15T03:40:56;99499.28;;;8.42;68.14
67740;BME280;54536;50.090;14.420;2022-11-15T03:46:39;99494.84;;;8.20;68.17
67740;BME280;54536;50.090;14.420;2022-11-15T03:49:22;99481.63;;;8.33;67.97
67740;BME280;54536;50.090;14.420;2022-11-15T03:51:50;99483.22;;;8.24;68.30
67740;BME280;54536;50.090;14.420;2022-11-15T03:54:17;99488.44;;;8.24;68.23
67740;BME280;54536;50.090;14.420;2022-11-15T03:56:43;99487.25;;;8.28;67.29
67740;BME280;54536;50.090;14.420;2022-11-15T03:59:09;99482.94;;;8.27;67.89
67740;BME280;54536;50.090;14.420;2022-11-15T04:01:42;99474.63;;;8.22;67.99
67740;BME280;54536;50.090;14.420;2022-11-15T04:04:14;99481.63;;;8.33;69.10
67740;BME280;54536;50.090;14.420;2022-11-15T04:06:40;99483.44;;;8.43;68.37
67740;BME280;54536;50.090;14.420;2022-11-15T04:09:06;99490.38;;;8.44;67.95
67740;BME280;54536;50.090;14.420;2022-11-15T04:11:33;99479.75;;;8.35;68.34
67740;BME280;54536;50.090;14.420;2022-11-15T04:14:05;99482.38;;;8.01;68.59
67740;BME280;54536;50.090;14.420;2022-11-15T04:16:37;99471.28;;;8.20;68.84
67740;BME280;54536;50.090;14.420;2022-11-15T04:19:03;99472.09;;;8.20;69.07
67740;BME280;54536;50.090;14.420;2022-11-15T04:21:48;99469.00;;;8.27;69.59
67740;BME280;54536;50.090;14.420;2022-11-15T04:24:38;99463.78;;;8.27;68.59
67740;BME280;54536;50.090;14.420;2022-11-15T04:27:10;99459.97;;;8.31;68.87
67740;BME280;54536;50.090;14.420;2022-11-15T04:29:39;99468.78;;;8.30;68.91
67740;BME280;54536;50.090;14.420;2022-11-15T04:32:06;99466.28;;;8.17;69.29
67740;BME280;54536;50.090;14.420;2022-11-15T04:34:33;99477.69;;;8.27;68.59
67740;BME280;54536;50.090;14.420;2022-11-15T04:37:06;99479.84;;;8.00;69.82
67740;BME280;54536;50.090;14.420;2022-11-15T04:39:41;99479.84;;;7.88;69.64
67740;BME280;54536;50.090;14.420;2022-11-15T04:42:09;99486.16;;;7.97;69.33
67740;BME280;54536;50.090;14.420;2022-11-15T04:44:35;99484.34;;;7.97;69.47
67740;BME280;54536;50.090;14.420;2022-11-15T04:47:02;99476.75;;;8.06;69.36
67740;BME280;54536;50.090;14.420;2022-11-15T04:49:28;99477.22;;;8.11;69.49
67740;BME280;54536;50.090;14.420;2022-11-15T04:51:55;99475.91;;;7.94;69.33
67740;BME280;54536;50.090;14.420;2022-11-15T04:54:21;99468.44;;;8.12;69.15
67740;BME280;54536;50.090;14.420;2022-11-15T04:56:48;99471.63;;;8.04;69.74
67740;BME280;54536;50.090;14.420;2022-11-15T04:59:14;99470.56;;;8.18;69.96
67740;BME280;54536;50.090;14.420;2022-11-15T05:01:41;99473.44;;;8.37;68.88
67740;BME280;54536;50.090;14.420;2022-11-15T05:04:08;99472.47;;;8.27;68.42
67740;BME280;54536;50.090;14.420;2022-11-15T05:06:50;99474.84;;;8.19;68.50
67740;BME280;54536;50.090;14.420;2022-11-15T05:09:19;99471.88;;;8.35;68.28
67740;BME280;54536;50.090;14.420;2022-11-15T05:11:47;99468.31;;;8.25;68.08
67740;BME280;54536;50.090;14.420;2022-11-15T05:14:14;99472.47;;;8.27;68.13
67740;BME280;54536;50.090;14.420;2022-11-15T05:16:41;99467.84;;;8.08;67.87
67740;BME280;54536;50.090;14.420;2022-11-15T05:19:14;99463.31;;;8.21;67.61
67740;BME280;54536;50.090;14.420;2022-11-15T05:21:40;99464.03;;;8.35;67.87
67740;BME280;54536;50.090;14.420;2022-11-15T05:24:10;99468.06;;;8.05;68.30
67740;BME280;54536;50.090;14.420;2022-11-15T05:26:37;99467.81;;;8.19;68.04
67740;BME280;54536;50.090;14.420;2022-11-15T05:29:15;99456.03;;;8.03;68.49
67740;BME280;54536;50.090;14.420;2022-11-15T05:31:42;99465.94;;;8.21;67.57
67740;BME280;54536;50.090;14.420;2022-11-15T05:34:08;99460.09;;;8.29;67.23
67740;BME280;54536;50.090;14.420;2022-11-15T05:36:41;99460.81;;;8.09;67.62
67740;BME280;54536;50.090;14.420;2022-11-15T05:39:09;99455.44;;;8.10;66.66
67740;BME280;54536;50.090;14.420;2022-11-15T05:44:10;99453.91;;;8.19;66.91
67740;BME280;54536;50.090;14.420;2022-11-15T05:46:40;99440.34;;;8.03;66.40
67740;BME280;54536;50.090;14.420;2022-11-15T05:49:13;99448.69;;;8.08;66.99
67740;BME280;54536;50.090;14.420;2022-11-15T05:51:45;99445.44;;;8.15;65.70
67740;BME280;54536;50.090;14.420;2022-11-15T05:54:14;99446.41;;;8.03;66.70
67740;BME280;54536;50.090;14.420;2022-11-15T05:56:42;99446.53;;;8.02;66.97
67740;BME280;54536;50.090;14.420;2022-11-15T05:59:16;99444.84;;;8.23;67.28
67740;BME280;54536;50.090;14.420;2022-11-15T06:01:45;99455.09;;;8.26;66.68
67740;BME280;54536;50.090;14.420;2022-11-15T06:04:30;99457.13;;;8.23;66.31
67740;BME280;54536;50.090;14.420;2022-11-15T06:06:58;99451.25;;;8.30;66.20
67740;BME280;54536;50.090;14.420;2022-11-15T06:09:25;99449.13;;;8.13;66.43
67740;BME280;54536;50.090;14.420;2022-11-15T06:11:51;99454.28;;;8.14;66.24
67740;BME280;54536;50.090;14.420;2022-11-15T06:14:17;99463.91;;;8.03;67.11
67740;BME280;54536;50.090;14.420;2022-11-15T06:16:45;99462.47;;;8.10;66.35
67740;BME280;54536;50.090;14.420;2022-11-15T06:19:12;99465.66;;;7.91;67.29
67740;BME280;54536;50.090;14.420;2022-11-15T06:21:39;99472.34;;;8.06;67.45
67740;BME280;54536;50.090;14.420;2022-11-15T06:24:06;99466.66;;;8.12;66.79
67740;BME280;54536;50.090;14.420;2022-11-15T06:26:38;99469.50;;;8.09;67.53
67740;BME280;54536;50.090;14.420;2022-11-15T06:29:05;99462.59;;;8.19;67.14
67740;BME280;54536;50.090;14.420;2022-11-15T06:31:34;99461.28;;;8.14;67.27
67740;BME280;54536;50.090;14.420;2022-11-15T06:34:00;99458.06;;;8.21;66.81
67740;BME280;54536;50.090;14.420;2022-11-15T06:36:27;99452.94;;;7.97;67.61
67740;BME280;54536;50.090;14.420;2022-11-15T06:38:53;99457.56;;;7.94;68.23
67740;BME280;54536;50.090;14.420;2022-11-15T06:41:20;99453.44;;;8.03;68.07
67740;BME280;54536;50.090;14.420;2022-11-15T06:43:47;99451.75;;;8.13;67.60
67740;BME280;54536;50.090;14.420;2022-11-15T06:46:14;99453.66;;;8.22;67.39
67740;BME280;54536;50.090;14.420;2022-11-15T06:48:40;99456.63;;;8.29;67.20
67740;BME280;54536;50.090;14.420;2022-11-15T06:51:12;99454.72;;;8.19;67.60
67740;BME280;54536;50.090;14.420;2022-11-15T06:53:38;99462.72;;;8.18;67.93
67740;BME280;54536;50.090;14.420;2022-11-15T06:56:11;99467.84;;;8.31;66.65
67740;BME280;54536;50.090;14.420;2022-11-15T06:58:37;99463.91;;;8.25;67.00
67740;BME280;54536;50.090;14.420;2022-11-15T07:01:12;99473.66;;;8.34;66.76
67740;BME280;54536;50.090;14.420;2022-11-15T07:03:44;99458.78;;;8.35;66.70
67740;BME280;54536;50.090;14.420;2022-11-15T07:06:12;99466.06;;;8.42;67.60
67740;BME280;54536;50.090;14.420;2022-11-15T07:08:38;99466.06;;;8.42;66.67
67740;BME280;54536;50.090;14.420;2022-11-15T07:11:07;99467.34;;;8.37;66.66
67740;BME280;54536;50.090;14.420;2022-11-15T07:13:35;99469.41;;;8.44;66.65
67740;BME280;54536;50.090;14.420;2022-11-15T07:16:07;99468.09;;;8.50;66.52
67740;BME280;54536;50.090;14.420;2022-11-15T07:18:35;99461.31;;;8.48;66.78
67740;BME280;54536;50.090;14.420;2022-11-15T07:21:04;99459.16;;;8.41;66.15
67740;BME280;54536;50.090;14.420;2022-11-15T07:23:31;99461.16;;;8.27;67.36
67740;BME280;54536;50.090;14.420;2022-11-15T07:25:58;99461.88;;;8.29;67.42
67740;BME280;54536;50.090;14.420;2022-11-15T07:28:28;99464.84;;;8.13;68.09
67740;BME280;54536;50.090;14.420;2022-11-15T07:30:54;99461.63;;;8.09;67.33
67740;BME280;54536;50.090;14.420;2022-11-15T07:33:20;99464.03;;;8.12;67.50
67740;BME280;54536;50.090;14.420;2022-11-15T07:35:47;99467.00;;;8.08;67.50
67740;BME280;54536;50.090;14.420;2022-11-15T07:38:17;99466.38;;;8.04;67.14
67740;BME280;54536;50.090;14.420;2022-11-15T07:40:55;99466.28;;;8.06;67.66
67740;BME280;54536;50.090;14.420;2022-11-15T07:43:21;99464.00;;;8.24;67.64
67740;BME280;54536;50.090;14.420;2022-11-15T07:45:48;99458.91;;;8.00;68.13
67740;BME280;54536;50.090;14.420;2022-11-15T07:48:14;99455.44;;;8.33;67.13
67740;BME280;54536;50.090;14.420;2022-11-15T07:50:41;99459.84;;;8.32;66.93
67740;BME280;54536;50.090;14.420;2022-11-15T07:53:11;99464.50;;;8.40;67.14
67740;BME280;54536;50.090;14.420;2022-11-15T07:55:41;99460.47;;;8.25;66.51
67740;BME280;54536;50.090;14.420;2022-11-15T07:58:10;99459.59;;;8.35;66.24
67740;BME280;54536;50.090;14.420;2022-11-15T08:00:37;99464.59;;;8.27;67.52
67740;BME280;54536;50.090;14.420;2022-11-15T08:03:06;99459.50;;;8.03;68.16
67740;BME280;54536;50.090;14.420;2022-11-15T08:05:34;99460.69;;;8.10;67.41
67740;BME280;54536;50.090;14.420;2022-11-15T08:08:01;99458.66;;;8.14;67.38
67740;BME280;54536;50.090;14.420;2022-11-15T08:10:28;99459.97;;;8.19;67.71
67740;BME280;54536;50.090;14.420;2022-11-15T08:13:09;99462.34;;;8.23;67.52
67740;BME280;54536;50.090;14.420;2022-11-15T08:15:36;99462.00;;;8.05;68.14
67740;BME280;54536;50.090;14.420;2022-11-15T08:18:09;99458.53;;;8.15;68.51
67740;BME280;54536;50.090;14.420;2022-11-15T08:20:36;99455.94;;;8.15;67.78
67740;BME280;54536;50.090;14.420;2022-11-15T08:23:04;99453.91;;;8.41;67.14
67740;BME280;54536;50.090;14.420;2022-11-15T08:25:33;99449.13;;;8.35;67.37
67740;BME280;54536;50.090;14.420;2022-11-15T08:28:02;99448.91;;;8.38;67.65
67740;BME280;54536;50.090;14.420;2022-11-15T08:30:28;99451.75;;;8.35;66.78
67740;BME280;54536;50.090;14.420;2022-11-15T08:32:57;99452.72;;;8.34;67.10
67740;BME280;54536;50.090;14.420;2022-11-15T08:35:25;99450.19;;;8.33;67.22
67740;BME280;54536;50.090;14.420;2022-11-15T08:37:52;99441.03;;;8.50;67.49
67740;BME280;54536;50.090;14.420;2022-11-15T08:40:19;99443.88;;;8.47;66.94
67740;BME280;54536;50.090;14.420;2022-11-15T08:42:46;99444.34;;;8.63;68.40
67740;BME280;54536;50.090;14.420;2022-11-15T08:45:14;99435.06;;;8.59;66.45
67740;BME280;54536;50.090;14.420;2022-11-15T08:47:40;99429.38;;;8.42;67.50
67740;BME280;54536;50.090;14.420;2022-11-15T08:50:07;99431.56;;;8.70;66.80
67740;BME280;54536;50.090;14.420;2022-11-15T08:52:33;99429.19;;;8.78;66.54
67740;BME280;54536;50.090;14.420;2022-11-15T08:54:59;99426.31;;;8.70;66.54
67740;BME280;54536;50.090;14.420;2022-11-15T08:57:28;99428.50;;;8.64;66.70
67740;BME280;54536;50.090;14.420;2022-11-15T08:59:56;99435.41;;;8.65;66.22
67740;BME280;54536;50.090;14.420;2022-11-15T09:02:22;99434.03;;;8.82;66.77
67740;BME280;54536;50.090;14.420;2022-11-15T09:04:49;99429.44;;;8.75;66.10
67740;BME280;54536;50.090;14.420;2022-11-15T09:07:16;99428.94;;;8.81;66.41
67740;BME280;54536;50.090;14.420;2022-11-15T09:09:42;99424.56;;;8.70;66.18
67740;BME280;54536;50.090;14.420;2022-11-15T09:12:10;99424.19;;;8.75;67.26
67740;BME280;54536;50.090;14.420;2022-11-15T09:14:36;99420.19;;;8.91;66.35
67740;BME280;54536;50.090;14.420;2022-11-15T09:17:03;99426.75;;;8.86;67.36
67740;BME280;54536;50.090;14.420;2022-11-15T09:19:29;99417.03;;;8.77;66.42
67740;BME280;54536;50.090;14.420;2022-11-15T09:21:56;99428.78;;;8.82;66.35
67740;BME280;54536;50.090;14.420;2022-11-15T09:24:22;99414.34;;;8.99;66.07
67740;BME280;54536;50.090;14.420;2022-11-15T09:26:50;99413.56;;;9.08;65.83
67740;BME280;54536;50.090;14.420;2022-11-15T09:29:18;99418.81;;;9.08;65.58
67740;BME280;54536;50.090;14.420;2022-11-15T09:31:44;99417.63;;;9.12;66.22
67740;BME280;54536;50.090;14.420;2022-11-15T09:34:11;99414.28;;;9.10;65.58
67740;BME280;54536;50.090;14.420;2022-11-15T09:36:37;99422.00;;;9.12;66.01
67740;BME280;54536;50.090;14.420;2022-11-15T09:39:04;99410.69;;;9.11;66.47
67740;BME280;54536;50.090;14.420;2022-11-15T09:44:51;99416.97;;;9.20;65.69
67740;BME280;54536;50.090;14.420;2022-11-15T09:50:15;99422.41;;;9.28;64.49
67740;BME280;54536;50.090;14.420;2022-11-15T09:52:44;99420.63;;;9.29;64.47
67740;BME280;54536;50.090;14.420;2022-11-15T09:55:14;99418.25;;;9.26;65.17
67740;BME280;54536;50.090;14.420;2022-11-15T09:57:53;99416.06;;;9.31;64.23
67740;BME280;54536;50.090;14.420;2022-11-15T10:00:33;99408.84;;;9.23;64.24
67740;BME280;54536;50.090;14.420;2022-11-15T10:03:29;99401.16;;;9.10;64.29
67740;BME280;54536;50.090;14.420;2022-11-15T10:06:01;99403.22;;;9.07;64.37
67740;BME280;54536;50.090;14.420;2022-11-15T10:09:40;99403.31;;;9.05;65.03
67740;BME280;54536;50.090;14.420;2022-11-15T10:11:47;99408.63;;;8.94;64.62
67740;BME280;54536;50.090;14.420;2022-11-15T10:14:24;99403.78;;;8.89;64.68
67740;BME280;54536;50.090;14.420;2022-11-15T10:17:15;99403.28;;;8.84;65.50
67740;BME280;54536;50.090;14.420;2022-11-15T10:25:32;99395.13;;;8.99;64.46
67740;BME280;54536;50.090;14.420;2022-11-15T10:30:47;99377.25;;;8.93;64.75
67740;BME280;54536;50.090;14.420;2022-11-15T10:35:49;99382.97;;;8.98;64.60
67740;BME280;54536;50.090;14.420;2022-11-15T10:46:46;99377.47;;;8.80;65.43
67740;BME280;54536;50.090;14.420;2022-11-15T10:49:27;99368.38;;;8.84;65.17
67740;BME280;54536;50.090;14.420;2022-11-15T10:54:36;99360.13;;;8.88;65.35
67740;BME280;54536;50.090;14.420;2022-11-15T10:57:14;99357.97;;;9.14;65.26
67740;BME280;54536;50.090;14.420;2022-11-15T10:59:50;99344.69;;;9.06;65.13
67740;BME280;54536;50.090;14.420;2022-11-15T11:02:39;99347.69;;;9.23;64.94
67740;BME280;54536;50.090;14.420;2022-11-15T11:05:33;99334.63;;;9.11;64.28
67740;BME280;54536;50.090;14.420;2022-11-15T11:08:20;99333.13;;;9.19;64.11
67740;BME280;54536;50.090;14.420;2022-11-15T11:11:02;99330.97;;;9.24;64.44
67740;BME280;54536;50.090;14.420;2022-11-15T11:13:36;99325.97;;;9.21;63.32
67740;BME280;54536;50.090;14.420;2022-11-15T11:36:36;99318.81;;;9.02;65.12
67740;BME280;54536;50.090;14.420;2022-11-15T11:39:26;99313.38;;;8.94;65.76
67740;BME280;54536;50.090;14.420;2022-11-15T11:42:10;99304.50;;;8.85;66.48
67740;BME280;54536;50.090;14.420;2022-11-15T11:50:37;99284.72;;;9.02;65.04
67740;BME280;54536;50.090;14.420;2022-11-15T11:56:06;99279.94;;;9.07;65.12
67740;BME280;54536;50.090;14.420;2022-11-15T11:58:37;99272.72;;;8.78;64.67
67740;BME280;54536;50.090;14.420;2022-11-15T12:14:52;99269.44;;;8.86;64.11
67740;BME280;54536;50.090;14.420;2022-11-15T12:17:27;99259.53;;;8.68;64.44
67740;BME280;54536;50.090;14.420;2022-11-15T12:20:22;99260.75;;;8.85;63.24
67740;BME280;54536;50.090;14.420;2022-11-15T12:26:06;99246.03;;;8.94;63.74
67740;BME280;54536;50.090;14.420;2022-11-15T12:29:01;99249.00;;;8.80;63.71
67740;BME280;54536;50.090;14.420;2022-11-15T12:34:04;99239.56;;;8.98;63.42
67740;BME280;54536;50.090;14.420;2022-11-15T12:36:43;99232.34;;;8.90;63.68
67740;BME280;54536;50.090;14.420;2022-11-15T12:39:11;99225.00;;;8.84;63.78
67740;BME280;54536;50.090;14.420;2022-11-15T12:41:40;99223.97;;;8.97;64.03
67740;BME280;54536;50.090;14.420;2022-11-15T12:47:24;99212.59;;;8.86;64.05
67740;BME280;54536;50.090;14.420;2022-11-15T12:49:51;99208.09;;;8.98;63.20
67740;BME280;54536;50.090;14.420;2022-11-15T12:52:18;99205.22;;;9.01;64.23
67740;BME280;54536;50.090;14.420;2022-11-15T12:54:58;99204.66;;;8.98;64.22
67740;BME280;54536;50.090;14.420;2022-11-15T12:57:36;99204.94;;;9.04;62.67
67740;BME280;54536;50.090;14.420;2022-11-15T13:02:42;99193.34;;;8.97;63.58
67740;BME280;54536;50.090;14.420;2022-11-15T13:12:59;99207.16;;;8.78;63.59
67740;BME280;54536;50.090;14.420;2022-11-15T13:18:27;99196.63;;;8.89;63.51
67740;BME280;54536;50.090;14.420;2022-11-15T13:20:54;99193.69;;;8.83;63.43
67740;BME280;54536;50.090;14.420;2022-11-15T13:23:22;99198.94;;;8.93;64.42
67740;BME280;54536;50.090;14.420;2022-11-15T13:33:47;99182.66;;;8.89;63.82
67740;BME280;54536;50.090;14.420;2022-11-15T13:36:19;99180.03;;;8.89;63.96
67740;BME280;54536;50.090;14.420;2022-11-15T13:38:55;99179.34;;;8.87;64.36
67740;BME280;54536;50.090;14.420;2022-11-15T13:41:25;99177.75;;;8.75;64.47
67740;BME280;54536;50.090;14.420;2022-11-15T13:43:54;99171.06;;;8.91;64.69
67740;BME280;54536;50.090;14.420;2022-11-15T13:46:33;99170.97;;;8.93;63.96
67740;BME280;54536;50.090;14.420;2022-11-15T13:49:08;99168.75;;;8.67;64.53
67740;BME280;54536;50.090;14.420;2022-11-15T13:51:54;99169.81;;;8.86;64.51
67740;BME280;54536;50.090;14.420;2022-11-15T13:59:52;99153.19;;;8.76;65.09
67740;BME280;54536;50.090;14.420;2022-11-15T14:02:39;99159.25;;;8.76;64.62
67740;BME280;54536;50.090;14.420;2022-11-15T14:08:59;99146.09;;;8.87;64.85
67740;BME280;54536;50.090;14.420;2022-11-15T14:11:27;99141.78;;;8.77;64.16
67740;BME280;54536;50.090;14.420;2022-11-15T14:16:49;99129.66;;;8.85;64.80
67740;BME280;54536;50.090;14.420;2022-11-15T14:19:36;99130.06;;;8.81;64.00
67740;BME280;54536;50.090;14.420;2022-11-15T14:22:14;99128.78;;;8.75;64.74
67740;BME280;54536;50.090;14.420;2022-11-15T14:24:45;99129.50;;;8.56;65.61
67740;BME280;54536;50.090;14.420;2022-11-15T14:27:27;99138.22;;;8.57;65.98
67740;BME280;54536;50.090;14.420;2022-11-15T14:29:54;99134.63;;;8.58;65.15
67740;BME280;54536;50.090;14.420;2022-11-15T14:32:22;99132.31;;;8.64;65.56
67740;BME280;54536;50.090;14.420;2022-11-15T14:34:59;99129.28;;;8.69;65.19
67740;BME280;54536;50.090;14.420;2022-11-15T14:37:29;99131.97;;;8.79;66.34
67740;BME280;54536;50.090;14.420;2022-11-15T14:39:58;99126.31;;;8.74;64.79
67740;BME280;54536;50.090;14.420;2022-11-15T14:42:34;99124.84;;;8.90;65.24
67740;BME280;54536;50.090;14.420;2022-11-15T14:45:00;99120.13;;;8.84;64.32
67740;BME280;54536;50.090;14.420;2022-11-15T14:47:27;99115.19;;;8.91;64.38
67740;BME280;54536;50.090;14.420;2022-11-15T14:49:53;99111.06;;;8.98;64.92
67740;BME280;54536;50.090;14.420;2022-11-15T14:52:26;99115.03;;;8.93;64.98
67740;BME280;54536;50.090;14.420;2022-11-15T14:54:55;99111.22;;;8.97;65.14
67740;BME280;54536;50.090;14.420;2022-11-15T14:57:22;99105.09;;;8.86;64.59
67740;BME280;54536;50.090;14.420;2022-11-15T14:59:48;99104.13;;;8.87;64.94
67740;BME280;54536;50.090;14.420;2022-11-15T15:02:20;99099.03;;;8.96;65.59
67740;BME280;54536;50.090;14.420;2022-11-15T15:04:48;99104.59;;;9.02;65.59
67740;BME280;54536;50.090;14.420;2022-11-15T15:07:14;99101.97;;;9.02;64.30
67740;BME280;54536;50.090;14.420;2022-11-15T15:09:41;99101.97;;;9.02;64.19
67740;BME280;54536;50.090;14.420;2022-11-15T15:12:22;99094.53;;;9.07;64.50
67740;BME280;54536;50.090;14.420;2022-11-15T15:14:50;99094.53;;;9.07;65.25
67740;BME280;54536;50.090;14.420;2022-11-15T15:17:17;99087.09;;;9.03;63.91
67740;BME280;54536;50.090;14.420;2022-11-15T15:19:43;99078.09;;;9.05;65.15
67740;BME280;54536;50.090;14.420;2022-11-15T15:22:15;99072.81;;;8.96;65.16
67740;BME280;54536;50.090;14.420;2022-11-15T15:24:54;99083.84;;;8.80;65.07
67740;BME280;54536;50.090;14.420;2022-11-15T15:27:21;99080.28;;;8.90;64.82
67740;BME280;54536;50.090;14.420;2022-11-15T15:29:47;99078.59;;;8.80;65.73
67740;BME280;54536;50.090;14.420;2022-11-15T15:32:19;99068.81;;;8.91;65.41
67740;BME280;54536;50.090;14.420;2022-11-15T15:34:45;99068.25;;;8.88;65.30
67740;BME280;54536;50.090;14.420;2022-11-15T15:37:25;99076.75;;;8.71;65.68
67740;BME280;54536;50.090;14.420;2022-11-15T15:39:55;99073.09;;;8.83;65.87